createdAt,value
2018-03-03T00:00:10.458Z,-9.14
2018-03-03T00:02:36.748Z,-9.11
2018-03-03T00:05:02.642Z,-9.14
2018-03-03T00:07:28.514Z,-9.16
2018-03-03T00:09:54.422Z,-9.18
2018-03-03T00:12:20.370Z,-9.25
2018-03-03T00:14:46.230Z,-9.27
2018-03-03T00:17:12.154Z,-9.21
2018-03-03T00:19:38.036Z,-9.20
2018-03-03T00:22:03.917Z,-9.19
2018-03-03T00:24:30.048Z,-9.25
2018-03-03T00:26:56.030Z,-9.26
2018-03-03T00:29:21.888Z,-9.25
2018-03-03T00:31:47.801Z,-9.24
2018-03-03T00:34:13.662Z,-9.31
2018-03-03T00:36:39.637Z,-9.28
2018-03-03T00:39:05.540Z,-9.25
2018-03-03T00:41:31.407Z,-9.36
2018-03-03T00:43:57.278Z,-9.30
2018-03-03T00:46:23.191Z,-9.30
2018-03-03T00:48:49.162Z,-9.42
2018-03-03T00:51:15.050Z,-9.37
2018-03-03T00:53:40.946Z,-9.39
2018-03-03T00:56:06.817Z,-9.35
2018-03-03T00:58:32.668Z,-9.51
2018-03-03T01:00:58.686Z,-9.43
2018-03-03T01:03:24.566Z,-9.53
2018-03-03T01:05:50.425Z,-9.52
2018-03-03T01:08:16.630Z,-9.52
2018-03-03T01:10:42.519Z,-9.53
2018-03-03T01:13:08.470Z,-9.59
2018-03-03T01:15:34.387Z,-9.55
2018-03-03T01:18:00.260Z,-9.60
2018-03-03T01:20:26.135Z,-9.58
2018-03-03T01:22:52.043Z,-9.66
2018-03-03T01:25:17.998Z,-9.62
2018-03-03T01:27:43.873Z,-9.70
2018-03-03T01:30:09.779Z,-9.60
2018-03-03T01:32:35.646Z,-9.68
2018-03-03T01:35:02.447Z,-9.68
2018-03-03T01:37:28.849Z,-9.80
2018-03-03T01:39:54.721Z,-9.74
2018-03-03T01:42:20.579Z,-9.76
2018-03-03T01:44:46.502Z,-9.77
2018-03-03T01:47:12.366Z,-9.78
2018-03-03T01:49:38.318Z,-9.85
2018-03-03T01:52:04.234Z,-9.73
2018-03-03T01:54:30.094Z,-9.76
2018-03-03T01:56:55.956Z,-9.84
2018-03-03T01:59:21.856Z,-9.86
2018-03-03T02:01:47.810Z,-9.89
2018-03-03T02:04:13.782Z,-9.82
2018-03-03T02:06:39.673Z,-10.00
2018-03-03T02:09:05.553Z,-9.92
2018-03-03T02:11:31.425Z,-9.96
2018-03-03T02:13:57.445Z,-9.92
2018-03-03T02:16:23.318Z,-10.07
2018-03-03T02:18:49.192Z,-10.01
2018-03-03T02:21:15.333Z,-10.07
2018-03-03T02:23:41.188Z,-10.06
2018-03-03T02:26:07.129Z,-10.05
2018-03-03T02:28:33.057Z,-10.16
2018-03-03T02:30:58.916Z,-10.16
2018-03-03T02:33:24.790Z,-10.22
2018-03-03T02:35:50.681Z,-10.16
2018-03-03T02:38:16.753Z,-10.26
2018-03-03T02:40:42.634Z,-10.40
2018-03-03T02:43:08.939Z,-10.41
2018-03-03T02:45:34.816Z,-10.37
2018-03-03T02:48:00.709Z,-10.39
2018-03-03T02:50:26.729Z,-10.42
2018-03-03T02:52:52.592Z,-10.44
2018-03-03T02:55:18.479Z,-10.47
2018-03-03T02:57:44.386Z,-10.49
2018-03-03T03:00:10.263Z,-10.49
2018-03-03T03:02:36.213Z,-10.41
2018-03-03T03:05:02.163Z,-10.42
2018-03-03T03:07:28.058Z,-10.48
2018-03-03T03:09:53.919Z,-10.52
2018-03-03T03:12:19.835Z,-10.46
2018-03-03T03:14:45.787Z,-10.39
2018-03-03T03:17:11.663Z,-10.45
2018-03-03T03:19:37.566Z,-10.50
2018-03-03T03:22:03.423Z,-10.55
2018-03-03T03:24:29.297Z,-10.51
2018-03-03T03:26:55.322Z,-10.60
2018-03-03T03:29:21.189Z,-10.62
2018-03-03T03:31:47.055Z,-10.69
2018-03-03T03:34:12.983Z,-10.67
2018-03-03T03:36:38.855Z,-10.68
2018-03-03T03:39:04.815Z,-10.77
2018-03-03T03:41:31.050Z,-10.76
2018-03-03T03:43:56.920Z,-10.70
2018-03-03T03:46:22.780Z,-10.75
2018-03-03T03:48:48.697Z,-10.77
2018-03-03T03:51:14.644Z,-10.76
2018-03-03T03:53:40.510Z,-10.79
2018-03-03T03:56:08.293Z,-10.79
2018-03-03T03:58:34.197Z,-10.84
2018-03-03T04:01:00.054Z,-10.80
2018-03-03T04:03:26.302Z,-10.92
2018-03-03T04:05:52.149Z,-10.88
2018-03-03T04:08:18.014Z,-10.83
2018-03-03T04:10:44.588Z,-10.90
2018-03-03T04:13:10.462Z,-10.95
2018-03-03T04:15:36.409Z,-10.90
2018-03-03T04:18:02.326Z,-10.91
2018-03-03T04:20:28.205Z,-10.87
2018-03-03T04:22:54.059Z,-10.98
2018-03-03T04:25:20.014Z,-10.98
2018-03-03T04:27:46.009Z,-10.93
2018-03-03T04:30:11.934Z,-10.87
2018-03-03T04:32:37.869Z,-10.99
2018-03-03T04:35:03.798Z,-11.11
2018-03-03T04:37:29.646Z,-11.03
2018-03-03T04:39:55.654Z,-11.13
2018-03-03T04:42:21.509Z,-11.14
2018-03-03T04:44:47.372Z,-11.14
2018-03-03T04:47:13.279Z,-11.15
2018-03-03T04:49:39.178Z,-11.18
2018-03-03T04:52:05.154Z,-11.26
2018-03-03T04:54:31.076Z,-11.26
2018-03-03T04:56:57.881Z,-11.21
2018-03-03T04:59:36.736Z,-11.24
2018-03-03T05:02:05.738Z,-11.21
2018-03-03T05:07:39.650Z,-11.26
2018-03-03T05:10:06.256Z,-11.26
2018-03-03T05:12:34.118Z,-11.23
2018-03-03T05:15:01.889Z,-11.32
2018-03-03T05:20:42.351Z,-11.30
2018-03-03T05:23:15.283Z,-11.34
2018-03-03T05:25:47.282Z,-11.43
2018-03-03T05:28:19.706Z,-11.50
2018-03-03T05:30:51.742Z,-11.54
2018-03-03T05:33:23.903Z,-11.53
2018-03-03T05:35:55.984Z,-11.54
2018-03-03T05:38:28.007Z,-11.51
2018-03-03T05:44:11.082Z,-11.49
2018-03-03T05:46:43.101Z,-11.45
2018-03-03T05:49:15.075Z,-11.48
2018-03-03T05:54:51.462Z,-11.60
2018-03-03T05:57:23.495Z,-11.52
2018-03-03T05:59:55.477Z,-11.56
2018-03-03T06:02:34.966Z,-11.53
2018-03-03T06:05:15.953Z,-11.55
2018-03-03T06:07:48.924Z,-11.53
2018-03-03T06:10:17.810Z,-11.46
2018-03-03T06:12:43.662Z,-11.41
2018-03-03T06:15:09.610Z,-11.39
2018-03-03T06:17:35.692Z,-11.34
2018-03-03T06:20:01.645Z,-11.37
2018-03-03T06:22:27.550Z,-11.37
2018-03-03T06:24:53.458Z,-11.30
2018-03-03T06:27:20.055Z,-11.29
2018-03-03T06:29:45.910Z,-11.18
2018-03-03T06:32:11.886Z,-11.13
2018-03-03T06:34:37.746Z,-11.05
2018-03-03T06:37:03.626Z,-11.06
2018-03-03T06:39:29.581Z,-10.97
2018-03-03T06:41:55.446Z,-10.87
2018-03-03T06:44:21.382Z,-10.71
2018-03-03T06:46:47.286Z,-10.70
2018-03-03T06:49:13.154Z,-10.64
2018-03-03T06:51:39.055Z,-10.53
2018-03-03T06:54:05.934Z,-10.48
2018-03-03T06:56:31.897Z,-10.44
2018-03-03T06:58:57.757Z,-10.29
2018-03-03T07:01:23.664Z,-10.24
2018-03-03T07:03:49.601Z,-10.08
2018-03-03T07:06:15.479Z,-9.99
2018-03-03T07:08:41.544Z,-9.90
2018-03-03T07:11:07.414Z,-9.87
2018-03-03T07:13:34.217Z,-9.76
2018-03-03T07:16:00.280Z,-9.65
2018-03-03T07:18:26.133Z,-9.46
2018-03-03T07:20:54.471Z,-9.35
2018-03-03T07:23:20.377Z,-9.19
2018-03-03T07:25:47.972Z,-9.06
2018-03-03T07:28:13.897Z,-9.02
2018-03-03T07:30:39.847Z,-9.18
2018-03-03T07:33:05.850Z,-9.03
2018-03-03T07:35:31.788Z,-8.87
2018-03-03T07:37:57.707Z,-8.71
2018-03-03T07:40:23.637Z,-8.84
2018-03-03T07:42:49.663Z,-8.95
2018-03-03T07:45:15.969Z,-8.73
2018-03-03T07:47:41.849Z,-8.31
2018-03-03T07:50:07.726Z,-8.37
2018-03-03T07:52:33.673Z,-8.11
2018-03-03T07:54:59.524Z,-7.90
2018-03-03T07:57:25.562Z,-7.65
2018-03-03T07:59:51.455Z,-7.54
2018-03-03T08:02:17.323Z,-7.63
2018-03-03T08:04:43.263Z,-7.59
2018-03-03T08:07:09.201Z,-7.52
2018-03-03T08:09:35.173Z,-7.30
2018-03-03T08:12:01.056Z,-6.96
2018-03-03T08:14:26.981Z,-6.60
2018-03-03T08:16:52.884Z,-6.39
2018-03-03T08:19:18.766Z,-6.48
2018-03-03T08:21:44.861Z,-6.45
2018-03-03T08:24:10.726Z,-6.31
2018-03-03T08:26:36.606Z,-6.27
2018-03-03T08:29:02.568Z,-6.15
2018-03-03T08:31:28.445Z,-6.45
2018-03-03T08:33:54.456Z,-6.44
2018-03-03T08:36:20.413Z,-6.10
2018-03-03T08:38:46.308Z,-5.92
2018-03-03T08:41:12.218Z,-5.76
2018-03-03T08:43:38.137Z,-5.22
2018-03-03T08:46:04.158Z,-5.48
2018-03-03T08:48:30.040Z,-5.33
2018-03-03T08:50:55.976Z,-5.55
2018-03-03T08:53:21.934Z,-5.28
2018-03-03T08:55:47.815Z,-4.82
2018-03-03T08:58:13.830Z,-5.15
2018-03-03T09:00:39.691Z,-5.15
2018-03-03T09:03:07.611Z,-5.34
2018-03-03T09:05:33.963Z,-5.53
2018-03-03T09:07:59.890Z,-5.81
2018-03-03T09:10:25.875Z,-5.54
2018-03-03T09:12:52.175Z,-5.27
2018-03-03T09:15:18.150Z,-5.33
2018-03-03T09:17:44.101Z,-5.04
2018-03-03T09:20:10.426Z,-4.84
2018-03-03T09:22:36.480Z,-4.74
2018-03-03T09:25:02.415Z,-5.06
2018-03-03T09:27:28.387Z,-5.01
2018-03-03T09:29:54.380Z,-4.53
2018-03-03T09:32:20.258Z,-4.55
2018-03-03T09:34:46.348Z,-4.53
2018-03-03T09:37:13.230Z,-4.51
2018-03-03T09:39:39.199Z,-4.34
2018-03-03T09:42:05.199Z,-4.37
2018-03-03T09:44:31.114Z,-4.19
2018-03-03T09:46:57.082Z,-3.95
2018-03-03T09:49:23.053Z,-3.76
2018-03-03T09:51:48.975Z,-3.80
2018-03-03T09:54:15.785Z,-3.43
2018-03-03T09:56:41.968Z,-3.52
2018-03-03T09:59:08.011Z,-3.60
2018-03-03T10:01:33.995Z,-3.09
2018-03-03T10:04:00.176Z,-3.56
2018-03-03T10:06:27.601Z,-3.36
2018-03-03T10:08:55.524Z,-3.64
2018-03-03T10:11:21.549Z,-2.58
2018-03-03T10:13:47.475Z,-2.58
2018-03-03T10:16:13.386Z,-2.31
2018-03-03T10:18:39.686Z,-2.83
2018-03-03T10:21:05.626Z,-1.84
2018-03-03T10:23:31.647Z,-2.04
2018-03-03T10:25:57.564Z,-2.47
2018-03-03T10:28:23.458Z,-2.19
2018-03-03T10:30:49.340Z,-2.26
2018-03-03T10:33:15.821Z,-2.58
2018-03-03T10:35:41.762Z,-2.82
2018-03-03T10:38:07.726Z,-2.51
2018-03-03T10:40:33.789Z,-2.14
2018-03-03T10:42:59.651Z,-1.55
2018-03-03T10:45:25.522Z,-1.35
2018-03-03T10:47:51.576Z,-1.65
2018-03-03T10:50:17.486Z,-1.85
2018-03-03T10:52:43.435Z,-1.39
2018-03-03T10:55:09.337Z,-1.78
2018-03-03T10:57:35.200Z,-2.17
2018-03-03T11:00:01.147Z,-2.11
2018-03-03T11:02:27.070Z,-2.38
2018-03-03T11:04:52.939Z,-2.04
2018-03-03T11:07:18.899Z,-2.46
2018-03-03T11:09:44.972Z,-2.08
2018-03-03T11:12:10.979Z,-1.46
2018-03-03T11:14:36.832Z,-0.90
2018-03-03T11:17:02.778Z,-0.92
2018-03-03T11:19:28.674Z,-0.99
2018-03-03T11:21:54.531Z,-1.49
2018-03-03T11:24:20.496Z,-2.36
2018-03-03T11:26:46.369Z,-2.31
2018-03-03T11:29:12.250Z,-1.83
2018-03-03T11:31:38.166Z,-2.11
2018-03-03T11:34:04.057Z,-2.09
2018-03-03T11:36:30.006Z,-1.30
2018-03-03T11:38:55.901Z,-1.19
2018-03-03T11:41:21.768Z,-1.26
2018-03-03T11:43:47.611Z,-1.44
2018-03-03T11:46:13.519Z,-0.66
2018-03-03T11:48:39.487Z,-1.19
2018-03-03T11:51:05.390Z,-0.56
2018-03-03T11:53:31.299Z,-0.81
2018-03-03T11:55:57.167Z,-0.78
2018-03-03T11:58:23.027Z,-0.69
2018-03-03T12:00:49.348Z,-0.79
2018-03-03T12:03:15.209Z,-1.05
2018-03-03T12:05:41.137Z,-0.40
2018-03-03T12:08:07.045Z,-0.96
2018-03-03T12:10:32.914Z,-1.10
2018-03-03T12:12:58.883Z,-0.81
2018-03-03T12:15:24.863Z,-0.24
2018-03-03T12:17:50.739Z,0.37
2018-03-03T12:20:16.622Z,0.44
2018-03-03T12:22:42.934Z,-0.40
2018-03-03T12:25:08.876Z,-0.18
2018-03-03T12:27:34.738Z,-0.22
2018-03-03T12:30:00.650Z,0.08
2018-03-03T12:32:26.526Z,0.18
2018-03-03T12:34:52.447Z,0.21
2018-03-03T12:37:18.426Z,-0.04
2018-03-03T12:39:44.272Z,0.04
2018-03-03T12:42:10.126Z,0.01
2018-03-03T12:44:36.058Z,0.00
2018-03-03T12:47:01.974Z,-0.19
2018-03-03T12:49:27.951Z,-0.24
2018-03-03T12:51:54.261Z,-0.40
2018-03-03T12:54:20.190Z,-0.43
2018-03-03T12:56:46.106Z,-0.48
2018-03-03T12:59:12.055Z,-0.32
2018-03-03T13:01:38.058Z,-1.09
2018-03-03T13:04:03.914Z,-0.60
2018-03-03T13:06:29.822Z,-0.84
2018-03-03T13:08:55.760Z,-1.09
2018-03-03T13:11:21.637Z,-1.13
2018-03-03T13:13:47.873Z,-1.19
2018-03-03T13:16:13.742Z,-1.06
2018-03-03T13:18:39.665Z,-1.55
2018-03-03T13:21:05.671Z,-1.19
2018-03-03T13:23:31.532Z,-1.26
2018-03-03T13:25:58.075Z,-1.26
2018-03-03T13:28:23.999Z,-1.37
2018-03-03T13:30:49.881Z,-1.55
2018-03-03T13:33:15.774Z,-1.34
2018-03-03T13:35:41.776Z,-1.63
2018-03-03T13:38:07.726Z,-1.60
2018-03-03T13:40:33.646Z,-1.29
2018-03-03T13:42:59.610Z,-1.40
2018-03-03T13:45:25.511Z,-1.22
2018-03-03T13:47:51.382Z,-1.28
2018-03-03T13:50:17.398Z,-1.04
2018-03-03T13:52:43.314Z,-1.01
2018-03-03T13:55:09.215Z,-1.12
2018-03-03T13:57:35.124Z,-1.20
2018-03-03T14:00:01.057Z,-1.21
2018-03-03T14:02:27.081Z,-1.43
2018-03-03T14:04:53.047Z,-1.32
2018-03-03T14:07:19.012Z,-1.48
2018-03-03T14:09:44.947Z,-1.69
2018-03-03T14:12:11.076Z,-1.48
2018-03-03T14:14:37.045Z,-1.48
2018-03-03T14:17:02.905Z,-1.31
2018-03-03T14:19:28.832Z,-1.32
2018-03-03T14:21:54.727Z,-1.29
2018-03-03T14:24:20.603Z,-1.56
2018-03-03T14:26:46.680Z,-1.41
2018-03-03T14:29:12.550Z,-1.43
2018-03-03T14:31:38.441Z,-1.36
2018-03-03T14:34:04.363Z,-1.34
2018-03-03T14:36:30.217Z,-1.43
2018-03-03T14:38:56.290Z,-1.46
2018-03-03T14:41:22.381Z,-1.47
2018-03-03T14:43:48.474Z,-1.45
2018-03-03T14:46:14.339Z,-1.52
2018-03-03T14:48:40.264Z,-1.41
2018-03-03T14:51:06.247Z,-1.52
2018-03-03T14:53:32.137Z,-1.56
2018-03-03T14:55:58.046Z,-1.59
2018-03-03T14:58:23.946Z,-1.69
2018-03-03T15:00:49.906Z,-1.78
2018-03-03T15:03:16.003Z,-1.85
2018-03-03T15:05:41.864Z,-1.71
2018-03-03T15:08:07.744Z,-1.68
2018-03-03T15:10:33.676Z,-1.75
2018-03-03T15:12:59.571Z,-1.91
2018-03-03T15:15:25.542Z,-1.96
2018-03-03T15:17:51.462Z,-1.94
2018-03-03T15:20:17.324Z,-1.90
2018-03-03T15:22:43.187Z,-1.97
2018-03-03T15:25:09.588Z,-2.05
2018-03-03T15:27:35.967Z,-2.01
2018-03-03T15:30:01.956Z,-1.96
2018-03-03T15:32:27.955Z,-2.02
2018-03-03T15:34:54.022Z,-1.97
2018-03-03T15:37:20.026Z,-2.09
2018-03-03T15:39:46.075Z,-2.19
2018-03-03T15:42:11.951Z,-2.20
2018-03-03T15:44:37.918Z,-2.18
2018-03-03T15:47:03.914Z,-2.34
2018-03-03T15:49:29.797Z,-2.35
2018-03-03T15:51:55.736Z,-2.35
2018-03-03T15:54:21.642Z,-2.37
2018-03-03T15:56:47.525Z,-2.41
2018-03-03T15:59:13.399Z,-2.54
2018-03-03T16:01:39.365Z,-2.61
2018-03-03T16:04:05.330Z,-2.67
2018-03-03T16:06:31.226Z,-2.75
2018-03-03T16:08:57.220Z,-2.81
2018-03-03T16:11:23.210Z,-2.80
2018-03-03T16:13:49.121Z,-2.82
2018-03-03T16:16:15.205Z,-2.88
2018-03-03T16:18:41.124Z,-2.92
2018-03-03T16:21:07.010Z,-2.94
2018-03-03T16:23:32.982Z,-2.94
2018-03-03T16:25:58.892Z,-3.05
2018-03-03T16:28:24.903Z,-3.12
2018-03-03T16:30:50.889Z,-3.17
2018-03-03T16:33:16.753Z,-3.16
2018-03-03T16:35:42.844Z,-3.35
2018-03-03T16:38:08.790Z,-3.38
2018-03-03T16:40:34.746Z,-3.43
2018-03-03T16:43:00.623Z,-3.45
2018-03-03T16:45:26.564Z,-3.60
2018-03-03T16:47:52.490Z,-3.59
2018-03-03T16:50:18.443Z,-3.68
2018-03-03T16:52:44.481Z,-3.71
2018-03-03T16:55:10.383Z,-3.83
2018-03-03T16:57:36.276Z,-3.82
2018-03-03T17:00:02.270Z,-3.89
2018-03-03T17:02:28.161Z,-3.90
2018-03-03T17:04:54.149Z,-3.99
2018-03-03T17:07:20.118Z,-4.04
2018-03-03T17:09:45.984Z,-4.19
2018-03-03T17:12:11.918Z,-4.23
2018-03-03T17:14:37.958Z,-4.21
2018-03-03T17:17:04.829Z,-4.28
2018-03-03T17:19:30.733Z,-4.29
2018-03-03T17:24:58.182Z,-4.40
2018-03-03T17:27:24.069Z,-4.49
2018-03-03T17:29:49.958Z,-4.53
2018-03-03T17:32:15.954Z,-4.62
2018-03-03T17:34:41.837Z,-4.66
2018-03-03T17:37:07.719Z,-4.79
2018-03-03T17:39:33.650Z,-4.80
2018-03-03T17:41:59.572Z,-4.83
2018-03-03T17:44:25.433Z,-4.87
2018-03-03T17:46:51.345Z,-4.89
2018-03-03T17:49:17.226Z,-4.80
2018-03-03T17:51:43.113Z,-4.75
2018-03-03T17:54:09.021Z,-4.80
2018-03-03T17:56:34.989Z,-4.98
2018-03-03T17:59:00.862Z,-4.96
2018-03-03T18:01:26.785Z,-4.97
2018-03-03T18:03:52.645Z,-4.94
2018-03-03T18:06:18.527Z,-5.00
2018-03-03T18:08:44.761Z,-4.99
2018-03-03T18:11:10.636Z,-5.01
2018-03-03T18:13:36.509Z,-5.05
2018-03-03T18:16:02.517Z,-5.11
2018-03-03T18:18:30.315Z,-5.20
2018-03-03T18:20:56.192Z,-5.33
2018-03-03T18:23:22.110Z,-5.41
2018-03-03T18:25:48.105Z,-5.44
2018-03-03T18:28:14.057Z,-5.48
2018-03-03T18:30:39.982Z,-5.56
2018-03-03T18:33:13.938Z,-5.60
2018-03-03T18:35:40.414Z,-5.70
2018-03-03T18:38:06.314Z,-5.72
2018-03-03T18:40:32.214Z,-5.78
2018-03-03T18:42:58.919Z,-5.81
2018-03-03T18:45:24.892Z,-5.81
2018-03-03T18:47:50.988Z,-5.81
2018-03-03T18:50:16.896Z,-5.78
2018-03-03T18:52:42.758Z,-5.79
2018-03-03T18:55:08.636Z,-5.89
2018-03-03T18:57:34.565Z,-5.94
2018-03-03T19:00:00.437Z,-5.94
2018-03-03T19:02:26.359Z,-5.99
2018-03-03T19:04:52.278Z,-5.96
2018-03-03T19:07:18.178Z,-6.04
2018-03-03T19:09:44.096Z,-6.03
2018-03-03T19:12:10.453Z,-6.12
2018-03-03T19:14:36.348Z,-6.18
2018-03-03T19:17:02.222Z,-6.20
2018-03-03T19:19:28.138Z,-6.26
2018-03-03T19:21:54.034Z,-6.31
2018-03-03T19:24:19.940Z,-6.32
2018-03-03T19:26:45.846Z,-6.37
2018-03-03T19:29:11.709Z,-6.35
2018-03-03T19:31:37.575Z,-6.47
2018-03-03T19:34:03.486Z,-6.47
2018-03-03T19:36:29.353Z,-6.51
2018-03-03T19:38:55.204Z,-6.51
2018-03-03T19:41:21.120Z,-6.56
2018-03-03T19:43:46.982Z,-6.52
2018-03-03T19:46:12.846Z,-6.58
2018-03-03T19:48:38.753Z,-6.46
2018-03-03T19:51:04.647Z,-6.62
2018-03-03T19:53:30.497Z,-6.58
2018-03-03T19:55:56.485Z,-6.55
2018-03-03T19:58:22.352Z,-6.57
2018-03-03T20:00:48.196Z,-6.58
2018-03-03T20:03:14.200Z,-6.61
2018-03-03T20:05:40.053Z,-6.67
2018-03-03T20:08:05.992Z,-6.68
2018-03-03T20:10:32.394Z,-6.72
2018-03-03T20:12:58.278Z,-6.62
2018-03-03T20:15:24.149Z,-6.60
2018-03-03T20:17:50.069Z,-6.49
2018-03-03T20:20:15.963Z,-6.44
2018-03-03T20:22:41.827Z,-6.46
2018-03-03T20:25:07.742Z,-6.39
2018-03-03T20:27:33.588Z,-6.53
2018-03-03T20:29:59.461Z,-6.48
2018-03-03T20:32:25.531Z,-6.49
2018-03-03T20:34:51.460Z,-6.40
2018-03-03T20:37:17.329Z,-6.42
2018-03-03T20:39:43.227Z,-6.45
2018-03-03T20:42:09.121Z,-6.43
2018-03-03T20:44:35.356Z,-6.35
2018-03-03T20:47:01.426Z,-6.32
2018-03-03T20:49:27.382Z,-6.31
2018-03-03T20:51:53.251Z,-6.32
2018-03-03T20:54:19.601Z,-6.33
2018-03-03T20:56:45.544Z,-6.29
2018-03-03T20:59:11.417Z,-6.36
2018-03-03T21:01:37.329Z,-6.38
2018-03-03T21:04:03.640Z,-6.35
2018-03-03T21:06:29.558Z,-6.32
2018-03-03T21:08:55.818Z,-6.29
2018-03-03T21:11:22.588Z,-6.35
2018-03-03T21:13:48.491Z,-6.37
2018-03-03T21:16:14.630Z,-6.36
2018-03-03T21:18:40.490Z,-6.32
2018-03-03T21:21:06.369Z,-6.44
2018-03-03T21:23:32.335Z,-6.45
2018-03-03T21:25:58.255Z,-6.41
2018-03-03T21:28:24.178Z,-6.45
2018-03-03T21:30:50.091Z,-6.48
2018-03-03T21:33:15.967Z,-6.57
2018-03-03T21:35:41.865Z,-6.55
2018-03-03T21:38:07.793Z,-6.61
2018-03-03T21:40:33.714Z,-6.64
2018-03-03T21:42:59.570Z,-6.68
2018-03-03T21:45:25.525Z,-6.70
2018-03-03T21:47:51.405Z,-6.78
2018-03-03T21:50:17.333Z,-6.79
2018-03-03T21:52:43.287Z,-6.83
2018-03-03T21:55:09.214Z,-6.88
2018-03-03T21:57:35.188Z,-6.95
2018-03-03T22:00:01.138Z,-6.97
2018-03-03T22:02:27.064Z,-6.98
2018-03-03T22:04:53.199Z,-7.08
2018-03-03T22:07:19.234Z,-7.12
2018-03-03T22:09:45.141Z,-7.23
2018-03-03T22:12:11.069Z,-7.09
2018-03-03T22:14:37.014Z,-7.11
2018-03-03T22:17:02.963Z,-7.18
2018-03-03T22:19:28.849Z,-7.22
2018-03-03T22:21:54.748Z,-7.26
2018-03-03T22:24:20.615Z,-7.47
2018-03-03T22:26:46.506Z,-7.51
2018-03-03T22:29:12.405Z,-7.52
2018-03-03T22:31:38.270Z,-7.60
2018-03-03T22:34:04.150Z,-7.63
2018-03-03T22:36:30.113Z,-7.58
2018-03-03T22:38:56.005Z,-7.46
2018-03-03T22:41:21.863Z,-7.45
2018-03-03T22:43:47.787Z,-7.53
2018-03-03T22:46:13.663Z,-7.59
2018-03-03T22:48:39.539Z,-7.50
2018-03-03T22:51:05.705Z,-7.51
2018-03-03T22:53:31.584Z,-7.49
2018-03-03T22:55:57.450Z,-7.51
2018-03-03T22:58:23.356Z,-7.53
2018-03-03T23:00:49.312Z,-7.44
2018-03-03T23:03:15.264Z,-7.45
2018-03-03T23:05:41.192Z,-7.44
2018-03-03T23:08:07.088Z,-7.48
2018-03-03T23:10:32.954Z,-7.41
2018-03-03T23:12:58.919Z,-7.43
2018-03-03T23:15:24.832Z,-7.42
2018-03-03T23:17:50.710Z,-7.45
2018-03-03T23:20:16.609Z,-7.47
2018-03-03T23:22:43.034Z,-7.53
2018-03-03T23:25:08.909Z,-7.51
2018-03-03T23:27:34.829Z,-7.49
2018-03-03T23:30:00.703Z,-7.57
2018-03-03T23:32:26.583Z,-7.54
2018-03-03T23:34:52.508Z,-7.53
2018-03-03T23:37:18.380Z,-7.53
2018-03-03T23:39:44.645Z,-7.54
2018-03-03T23:42:10.583Z,-7.58
2018-03-03T23:44:36.473Z,-7.54
2018-03-03T23:47:02.357Z,-7.61
2018-03-03T23:49:28.269Z,-7.57
2018-03-03T23:51:54.185Z,-7.60
2018-03-03T23:54:20.103Z,-7.47
2018-03-03T23:56:45.998Z,-7.50
2018-03-03T23:59:11.890Z,-7.50
